sensor_id;sensor_type;location;lat;lon;timestamp;pressure;altitude;pressure_sealevel;temperature;humidity
61870;BME280;47810;42.264;23.826;2024-02-16T00:01:24;94297.75;;;1.84;72.33
61870;BME280;47810;42.264;23.826;2024-02-16T00:03:59;94301.47;;;1.74;72.48
61870;BME280;47810;42.264;23.826;2024-02-16T00:06:25;94295.56;;;1.67;72.74
61870;BME280;47810;42.264;23.826;2024-02-16T00:08:59;94296.56;;;1.60;73.68
61870;BME280;47810;42.264;23.826;2024-02-16T00:11:54;94299.22;;;1.58;72.94
61870;BME280;47810;42.264;23.826;2024-02-16T00:14:44;94294.19;;;1.51;73.41
61870;BME280;47810;42.264;23.826;2024-02-16T00:17:26;94292.34;;;1.56;73.20
61870;BME280;47810;42.264;23.826;2024-02-16T00:23:05;94294.19;;;1.51;73.69
61870;BME280;47810;42.264;23.826;2024-02-16T00:25:38;94289.09;;;1.48;73.84
61870;BME280;47810;42.264;23.826;2024-02-16T00:28:17;94290.94;;;1.41;73.85
61870;BME280;47810;42.264;23.826;2024-02-16T00:30:44;94290.78;;;1.49;73.31
61870;BME280;47810;42.264;23.826;2024-02-16T00:33:16;94287.22;;;1.53;73.11
61870;BME280;47810;42.264;23.826;2024-02-16T00:35:48;94285.38;;;1.58;72.30
61870;BME280;47810;42.264;23.826;2024-02-16T00:44:56;94283.13;;;1.78;71.07
61870;BME280;47810;42.264;23.826;2024-02-16T00:47:36;94275.44;;;1.74;71.57
61870;BME280;47810;42.264;23.826;2024-02-16T00:53:34;94272.22;;;1.62;72.04
61870;BME280;47810;42.264;23.826;2024-02-16T00:56:08;94274.97;;;1.58;72.26
61870;BME280;47810;42.264;23.826;2024-02-16T00:58:40;94279.81;;;1.72;72.14
61870;BME280;47810;42.264;23.826;2024-02-16T01:01:12;94272.22;;;1.64;72.38
61870;BME280;47810;42.264;23.826;2024-02-16T01:03:39;94275.59;;;1.68;71.61
61870;BME280;47810;42.264;23.826;2024-02-16T01:06:17;94279.91;;;1.69;71.66
61870;BME280;47810;42.264;23.826;2024-02-16T01:08:52;94281.66;;;1.67;71.62
61870;BME280;47810;42.264;23.826;2024-02-16T01:11:23;94278.13;;;1.71;71.95
61870;BME280;47810;42.264;23.826;2024-02-16T01:13:53;94276.28;;;1.74;72.15
61870;BME280;47810;42.264;23.826;2024-02-16T01:16:27;94277.38;;;1.66;72.53
61870;BME280;47810;42.264;23.826;2024-02-16T01:19:01;94268.97;;;1.54;72.92
61870;BME280;47810;42.264;23.826;2024-02-16T01:21:31;94267.09;;;1.59;73.18
61870;BME280;47810;42.264;23.826;2024-02-16T01:24:03;94266.31;;;1.56;73.08
61870;BME280;47810;42.264;23.826;2024-02-16T01:26:37;94267.00;;;1.64;71.88
61870;BME280;47810;42.264;23.826;2024-02-16T01:29:08;94268.72;;;1.63;72.12
61870;BME280;47810;42.264;23.826;2024-02-16T01:31:45;94261.81;;;1.62;72.25
61870;BME280;47810;42.264;23.826;2024-02-16T01:34:12;94259.97;;;1.68;72.02
61870;BME280;47810;42.264;23.826;2024-02-16T01:36:45;94260.19;;;1.58;72.56
61870;BME280;47810;42.264;23.826;2024-02-16T01:39:11;94254.53;;;1.41;73.22
61870;BME280;47810;42.264;23.826;2024-02-16T01:41:52;94255.16;;;1.52;73.10
61870;BME280;47810;42.264;23.826;2024-02-16T01:44:23;94261.97;;;1.56;72.87
61870;BME280;47810;42.264;23.826;2024-02-16T01:46:55;94249.94;;;1.52;73.21
61870;BME280;47810;42.264;23.826;2024-02-16T01:49:22;94248.09;;;1.57;73.21
61870;BME280;47810;42.264;23.826;2024-02-16T01:51:52;94254.03;;;1.62;72.41
61870;BME280;47810;42.264;23.826;2024-02-16T01:54:31;94254.91;;;1.61;72.56
61870;BME280;47810;42.264;23.826;2024-02-16T01:57:06;94253.44;;;1.51;73.19
61870;BME280;47810;42.264;23.826;2024-02-16T02:03:03;94255.50;;;1.37;73.77
61870;BME280;47810;42.264;23.826;2024-02-16T02:05:46;94255.72;;;1.28;74.02
61870;BME280;47810;42.264;23.826;2024-02-16T02:08:46;94252.44;;;1.20;74.55
61870;BME280;47810;42.264;23.826;2024-02-16T02:11:18;94250.72;;;1.19;74.66
61870;BME280;47810;42.264;23.826;2024-02-16T02:13:56;94250.78;;;1.15;74.81
61870;BME280;47810;42.264;23.826;2024-02-16T02:16:40;94251.81;;;1.10;74.75
61870;BME280;47810;42.264;23.826;2024-02-16T02:19:10;94256.75;;;1.21;75.04
61870;BME280;47810;42.264;23.826;2024-02-16T02:21:37;94250.13;;;1.07;75.62
61870;BME280;47810;42.264;23.826;2024-02-16T02:30:07;94251.38;;;0.91;76.40
61870;BME280;47810;42.264;23.826;2024-02-16T02:32:37;94257.78;;;0.75;77.37
61870;BME280;47810;42.264;23.826;2024-02-16T02:35:09;94253.63;;;0.67;78.39
61870;BME280;47810;42.264;23.826;2024-02-16T02:37:46;94258.53;;;0.38;79.80
61870;BME280;47810;42.264;23.826;2024-02-16T02:40:12;94253.50;;;0.29;80.18
61870;BME280;47810;42.264;23.826;2024-02-16T02:42:54;94255.13;;;0.78;78.00
61870;BME280;47810;42.264;23.826;2024-02-16T02:45:21;94249.28;;;1.05;76.27
61870;BME280;47810;42.264;23.826;2024-02-16T02:47:50;94239.97;;;0.97;76.51
61870;BME280;47810;42.264;23.826;2024-02-16T02:50:24;94244.38;;;0.93;76.64
61870;BME280;47810;42.264;23.826;2024-02-16T03:00:04;94256.56;;;0.91;76.84
61870;BME280;47810;42.264;23.826;2024-02-16T03:03:03;94263.19;;;1.04;76.69
61870;BME280;47810;42.264;23.826;2024-02-16T03:05:37;94265.16;;;0.93;76.42
61870;BME280;47810;42.264;23.826;2024-02-16T03:08:10;94270.47;;;0.90;77.12
61870;BME280;47810;42.264;23.826;2024-02-16T03:10:37;94266.97;;;0.91;77.00
61870;BME280;47810;42.264;23.826;2024-02-16T03:13:15;94277.50;;;0.85;77.10
61870;BME280;47810;42.264;23.826;2024-02-16T03:15:46;94277.44;;;0.86;77.13
61870;BME280;47810;42.264;23.826;2024-02-16T03:18:21;94280.31;;;0.74;76.75
61870;BME280;47810;42.264;23.826;2024-02-16T03:20:52;94285.16;;;0.49;78.31
61870;BME280;47810;42.264;23.826;2024-02-16T03:23:24;94285.34;;;0.40;78.97
61870;BME280;47810;42.264;23.826;2024-02-16T03:25:56;94286.81;;;0.53;78.73
61870;BME280;47810;42.264;23.826;2024-02-16T03:28:22;94293.44;;;0.66;78.50
61870;BME280;47810;42.264;23.826;2024-02-16T03:30:48;94282.19;;;0.67;78.12
61870;BME280;47810;42.264;23.826;2024-02-16T03:33:20;94293.91;;;0.45;79.39
61870;BME280;47810;42.264;23.826;2024-02-16T03:36:06;94287.09;;;0.38;80.13
61870;BME280;47810;42.264;23.826;2024-02-16T03:38:35;94287.03;;;0.41;80.58
61870;BME280;47810;42.264;23.826;2024-02-16T03:41:21;94282.44;;;0.54;79.83
61870;BME280;47810;42.264;23.826;2024-02-16T03:43:51;94279.66;;;0.64;79.09
61870;BME280;47810;42.264;23.826;2024-02-16T03:46:29;94278.69;;;0.68;78.57
61870;BME280;47810;42.264;23.826;2024-02-16T03:49:01;94276.09;;;0.68;79.07
61870;BME280;47810;42.264;23.826;2024-02-16T03:51:58;94286.63;;;0.62;79.14
61870;BME280;47810;42.264;23.826;2024-02-16T03:57:55;94296.63;;;0.37;80.53
61870;BME280;47810;42.264;23.826;2024-02-16T04:03:40;94293.81;;;0.50;80.24
61870;BME280;47810;42.264;23.826;2024-02-16T04:06:16;94297.09;;;0.58;79.90
61870;BME280;47810;42.264;23.826;2024-02-16T04:09:07;94305.75;;;0.58;80.15
61870;BME280;47810;42.264;23.826;2024-02-16T04:11:39;94301.19;;;0.71;79.18
61870;BME280;47810;42.264;23.826;2024-02-16T04:14:22;94298.41;;;0.79;78.96
61870;BME280;47810;42.264;23.826;2024-02-16T04:26:55;94300.44;;;0.64;78.83
61870;BME280;47810;42.264;23.826;2024-02-16T04:29:22;94303.13;;;0.60;78.70
61870;BME280;47810;42.264;23.826;2024-02-16T04:31:57;94305.44;;;0.74;79.33
61870;BME280;47810;42.264;23.826;2024-02-16T04:34:29;94292.16;;;0.44;80.09
61870;BME280;47810;42.264;23.826;2024-02-16T04:37:01;94297.38;;;0.44;80.39
61870;BME280;47810;42.264;23.826;2024-02-16T04:39:36;94300.88;;;-0.07;82.24
61870;BME280;47810;42.264;23.826;2024-02-16T04:42:08;94299.09;;;-0.02;81.62
61870;BME280;47810;42.264;23.826;2024-02-16T04:44:40;94290.97;;;0.15;82.44
61870;BME280;47810;42.264;23.826;2024-02-16T04:47:10;94290.53;;;0.38;81.46
61870;BME280;47810;42.264;23.826;2024-02-16T04:49:43;94286.81;;;0.53;80.60
61870;BME280;47810;42.264;23.826;2024-02-16T04:52:15;94291.16;;;0.53;80.80
61870;BME280;47810;42.264;23.826;2024-02-16T04:55:04;94291.69;;;0.68;80.04
61870;BME280;47810;42.264;23.826;2024-02-16T04:57:34;94288.00;;;0.79;79.37
61870;BME280;47810;42.264;23.826;2024-02-16T05:00:06;94296.81;;;0.72;79.52
61870;BME280;47810;42.264;23.826;2024-02-16T05:02:35;94289.81;;;0.75;78.77
61870;BME280;47810;42.264;23.826;2024-02-16T05:05:00;94299.56;;;0.65;79.33
61870;BME280;47810;42.264;23.826;2024-02-16T05:07:29;94297.13;;;0.56;79.70
61870;BME280;47810;42.264;23.826;2024-02-16T05:09:58;94305.81;;;0.55;79.12
61870;BME280;47810;42.264;23.826;2024-02-16T05:12:36;94305.28;;;0.38;78.93
61870;BME280;47810;42.264;23.826;2024-02-16T05:15:09;94303.16;;;0.13;82.26
61870;BME280;47810;42.264;23.826;2024-02-16T05:17:39;94296.97;;;0.20;81.04
61870;BME280;47810;42.264;23.826;2024-02-16T05:20:12;94303.84;;;0.23;81.52
61870;BME280;47810;42.264;23.826;2024-02-16T05:22:45;94307.97;;;0.32;81.71
61870;BME280;47810;42.264;23.826;2024-02-16T05:25:16;94301.94;;;0.33;81.22
61870;BME280;47810;42.264;23.826;2024-02-16T05:27:49;94308.81;;;0.34;79.82
61870;BME280;47810;42.264;23.826;2024-02-16T05:30:24;94309.53;;;0.42;80.83
61870;BME280;47810;42.264;23.826;2024-02-16T05:32:52;94306.13;;;0.40;81.21
61870;BME280;47810;42.264;23.826;2024-02-16T05:35:24;94301.75;;;0.42;81.04
61870;BME280;47810;42.264;23.826;2024-02-16T05:37:57;94317.19;;;0.48;80.54
61870;BME280;47810;42.264;23.826;2024-02-16T05:40:29;94310.16;;;0.08;81.70
61870;BME280;47810;42.264;23.826;2024-02-16T05:42:57;94319.44;;;0.21;82.24
61870;BME280;47810;42.264;23.826;2024-02-16T05:45:42;94323.97;;;0.10;82.70
61870;BME280;47810;42.264;23.826;2024-02-16T05:48:08;94327.53;;;0.03;83.06
61870;BME280;47810;42.264;23.826;2024-02-16T05:50:38;94327.44;;;0.09;82.31
61870;BME280;47810;42.264;23.826;2024-02-16T05:53:13;94323.75;;;0.22;82.29
61870;BME280;47810;42.264;23.826;2024-02-16T05:55:43;94333.25;;;0.22;82.02
61870;BME280;47810;42.264;23.826;2024-02-16T05:58:16;94334.94;;;0.26;82.25
61870;BME280;47810;42.264;23.826;2024-02-16T06:00:48;94336.56;;;0.32;82.47
61870;BME280;47810;42.264;23.826;2024-02-16T06:03:23;94332.94;;;0.40;82.25
61870;BME280;47810;42.264;23.826;2024-02-16T06:05:52;94337.44;;;0.31;82.55
61870;BME280;47810;42.264;23.826;2024-02-16T06:08:25;94341.63;;;0.39;82.38
61870;BME280;47810;42.264;23.826;2024-02-16T06:10:57;94333.84;;;0.38;82.25
61870;BME280;47810;42.264;23.826;2024-02-16T06:13:29;94337.09;;;0.49;81.47
61870;BME280;47810;42.264;23.826;2024-02-16T06:16:05;94337.84;;;0.54;81.77
61870;BME280;47810;42.264;23.826;2024-02-16T06:18:36;94333.66;;;0.47;81.13
61870;BME280;47810;42.264;23.826;2024-02-16T06:21:08;94332.94;;;0.40;82.26
61870;BME280;47810;42.264;23.826;2024-02-16T06:23:41;94334.47;;;0.51;81.99
61870;BME280;47810;42.264;23.826;2024-02-16T06:26:11;94335.09;;;0.63;81.19
61870;BME280;47810;42.264;23.826;2024-02-16T06:28:46;94337.78;;;0.59;81.70
61870;BME280;47810;42.264;23.826;2024-02-16T06:31:19;94345.41;;;0.66;81.49
61870;BME280;47810;42.264;23.826;2024-02-16T06:33:56;94341.88;;;0.70;81.44
61870;BME280;47810;42.264;23.826;2024-02-16T06:36:22;94340.09;;;0.74;80.93
61870;BME280;47810;42.264;23.826;2024-02-16T06:38:55;94331.41;;;0.74;80.67
61870;BME280;47810;42.264;23.826;2024-02-16T06:41:23;94341.63;;;0.83;80.71
61870;BME280;47810;42.264;23.826;2024-02-16T06:43:59;94343.09;;;0.96;80.54
61870;BME280;47810;42.264;23.826;2024-02-16T06:46:30;94343.91;;;0.98;81.40
61870;BME280;47810;42.264;23.826;2024-02-16T06:49:02;94341.19;;;1.04;80.39
61870;BME280;47810;42.264;23.826;2024-02-16T06:51:30;94339.38;;;1.09;80.20
61870;BME280;47810;42.264;23.826;2024-02-16T06:54:09;94341.91;;;1.12;79.50
61870;BME280;47810;42.264;23.826;2024-02-16T06:56:42;94337.31;;;1.24;79.44
61870;BME280;47810;42.264;23.826;2024-02-16T06:59:12;94344.00;;;1.34;79.40
61870;BME280;47810;42.264;23.826;2024-02-16T07:01:45;94349.22;;;1.34;79.56
61870;BME280;47810;42.264;23.826;2024-02-16T07:04:19;94346.63;;;1.34;80.30
61870;BME280;47810;42.264;23.826;2024-02-16T07:10:27;94351.47;;;1.49;80.17
61870;BME280;47810;42.264;23.826;2024-02-16T07:15:55;94351.00;;;1.71;79.68
61870;BME280;47810;42.264;23.826;2024-02-16T07:22:15;94358.22;;;1.95;79.74
61870;BME280;47810;42.264;23.826;2024-02-16T07:28:10;94353.75;;;2.00;79.40
61870;BME280;47810;42.264;23.826;2024-02-16T07:34:16;94347.94;;;2.25;78.29
61870;BME280;47810;42.264;23.826;2024-02-16T07:36:59;94357.38;;;2.29;77.90
61870;BME280;47810;42.264;23.826;2024-02-16T07:39:45;94358.53;;;2.51;77.53
61870;BME280;47810;42.264;23.826;2024-02-16T07:42:15;94350.41;;;2.62;77.73
61870;BME280;47810;42.264;23.826;2024-02-16T07:48:05;94361.88;;;2.89;76.69
61870;BME280;47810;42.264;23.826;2024-02-16T07:50:40;94358.97;;;2.98;76.22
61870;BME280;47810;42.264;23.826;2024-02-16T07:53:20;94357.94;;;3.06;76.08
61870;BME280;47810;42.264;23.826;2024-02-16T07:55:49;94350.53;;;3.20;76.44
61870;BME280;47810;42.264;23.826;2024-02-16T08:02:09;94349.19;;;3.36;76.43
61870;BME280;47810;42.264;23.826;2024-02-16T08:07:38;94346.22;;;3.48;75.24
61870;BME280;47810;42.264;23.826;2024-02-16T08:10:11;94336.31;;;3.60;74.21
61870;BME280;47810;42.264;23.826;2024-02-16T08:12:43;94334.38;;;3.93;72.58
61870;BME280;47810;42.264;23.826;2024-02-16T08:15:16;94341.19;;;3.99;72.63
61870;BME280;47810;42.264;23.826;2024-02-16T08:17:48;94352.31;;;4.04;72.34
61870;BME280;47810;42.264;23.826;2024-02-16T08:20:20;94344.91;;;4.18;72.67
61870;BME280;47810;42.264;23.826;2024-02-16T08:22:54;94336.13;;;4.46;71.43
61870;BME280;47810;42.264;23.826;2024-02-16T08:25:24;94347.28;;;4.51;70.92
61870;BME280;47810;42.264;23.826;2024-02-16T08:27:56;94348.03;;;4.79;70.81
61870;BME280;47810;42.264;23.826;2024-02-16T08:30:28;94338.34;;;5.06;70.26
61870;BME280;47810;42.264;23.826;2024-02-16T08:33:00;94344.34;;;5.33;69.21
61870;BME280;47810;42.264;23.826;2024-02-16T08:35:32;94342.78;;;5.51;67.24
61870;BME280;47810;42.264;23.826;2024-02-16T08:38:05;94351.59;;;5.72;66.41
61870;BME280;47810;42.264;23.826;2024-02-16T08:40:37;94343.59;;;5.99;64.75
61870;BME280;47810;42.264;23.826;2024-02-16T08:43:08;94343.81;;;5.93;65.48
61870;BME280;47810;42.264;23.826;2024-02-16T08:45:41;94345.03;;;6.48;63.45
61870;BME280;47810;42.264;23.826;2024-02-16T08:48:13;94346.59;;;6.74;62.68
61870;BME280;47810;42.264;23.826;2024-02-16T08:50:39;94341.69;;;7.27;62.88
61870;BME280;47810;42.264;23.826;2024-02-16T08:53:19;94345.53;;;7.57;59.29
61870;BME280;47810;42.264;23.826;2024-02-16T08:55:50;94343.84;;;7.75;59.50
61870;BME280;47810;42.264;23.826;2024-02-16T08:58:22;94352.50;;;7.96;58.00
61870;BME280;47810;42.264;23.826;2024-02-16T09:00:57;94349.34;;;8.26;59.42
61870;BME280;47810;42.264;23.826;2024-02-16T09:07:21;94359.25;;;8.02;60.11
61870;BME280;47810;42.264;23.826;2024-02-16T09:13:42;94363.47;;;9.29;54.10
61870;BME280;47810;42.264;23.826;2024-02-16T09:16:09;94369.00;;;9.57;53.07
61870;BME280;47810;42.264;23.826;2024-02-16T09:18:40;94372.44;;;9.42;53.19
61870;BME280;47810;42.264;23.826;2024-02-16T09:21:13;94364.94;;;9.68;50.94
61870;BME280;47810;42.264;23.826;2024-02-16T09:23:45;94378.56;;;10.23;50.52
61870;BME280;47810;42.264;23.826;2024-02-16T09:26:30;94374.75;;;10.61;49.71
61870;BME280;47810;42.264;23.826;2024-02-16T09:32:53;94361.50;;;11.07;48.65
61870;BME280;47810;42.264;23.826;2024-02-16T09:35:29;94364.16;;;10.46;48.47
61870;BME280;47810;42.264;23.826;2024-02-16T09:38:14;94362.06;;;10.67;47.58
61870;BME280;47810;42.264;23.826;2024-02-16T09:40:40;94354.69;;;10.42;46.77
61870;BME280;47810;42.264;23.826;2024-02-16T09:43:26;94351.44;;;10.83;47.48
61870;BME280;47810;42.264;23.826;2024-02-16T09:49:06;94342.09;;;11.22;47.31
61870;BME280;47810;42.264;23.826;2024-02-16T09:51:41;94340.13;;;10.81;49.00
61870;BME280;47810;42.264;23.826;2024-02-16T09:54:12;94342.44;;;10.41;49.35
61870;BME280;47810;42.264;23.826;2024-02-16T09:56:44;94336.13;;;10.74;46.70
61870;BME280;47810;42.264;23.826;2024-02-16T09:59:18;94327.00;;;11.24;46.85
61870;BME280;47810;42.264;23.826;2024-02-16T10:01:58;94332.50;;;11.93;47.20
61870;BME280;47810;42.264;23.826;2024-02-16T10:04:24;94328.59;;;12.12;43.27
61870;BME280;47810;42.264;23.826;2024-02-16T10:06:53;94325.31;;;11.80;45.06
61870;BME280;47810;42.264;23.826;2024-02-16T10:09:26;94323.16;;;10.85;42.29
61870;BME280;47810;42.264;23.826;2024-02-16T10:11:56;94318.09;;;10.96;42.90
61870;BME280;47810;42.264;23.826;2024-02-16T10:14:32;94318.91;;;11.41;42.95
61870;BME280;47810;42.264;23.826;2024-02-16T10:17:03;94316.47;;;11.53;46.04
61870;BME280;47810;42.264;23.826;2024-02-16T10:19:40;94310.38;;;11.79;43.25
61870;BME280;47810;42.264;23.826;2024-02-16T10:22:09;94310.69;;;11.89;42.30
61870;BME280;47810;42.264;23.826;2024-02-16T10:24:36;94307.41;;;12.12;42.68
61870;BME280;47810;42.264;23.826;2024-02-16T10:27:14;94300.50;;;12.64;43.21
61870;BME280;47810;42.264;23.826;2024-02-16T10:29:47;94294.53;;;12.75;40.71
61870;BME280;47810;42.264;23.826;2024-02-16T10:32:16;94297.66;;;12.67;40.22
61870;BME280;47810;42.264;23.826;2024-02-16T10:38:10;94303.94;;;13.70;41.39
61870;BME280;47810;42.264;23.826;2024-02-16T10:43:53;94298.00;;;13.66;39.85
61870;BME280;47810;42.264;23.826;2024-02-16T10:46:55;94289.38;;;13.75;39.98
61870;BME280;47810;42.264;23.826;2024-02-16T10:49:33;94285.22;;;13.97;40.00
61870;BME280;47810;42.264;23.826;2024-02-16T10:52:05;94282.00;;;13.55;42.05
61870;BME280;47810;42.264;23.826;2024-02-16T10:54:34;94273.63;;;13.98;41.28
61870;BME280;47810;42.264;23.826;2024-02-16T11:00:15;94280.28;;;15.35;36.30
61870;BME280;47810;42.264;23.826;2024-02-16T11:02:58;94281.84;;;14.91;38.27
61870;BME280;47810;42.264;23.826;2024-02-16T11:05:42;94274.09;;;14.88;36.94
61870;BME280;47810;42.264;23.826;2024-02-16T11:14:22;94270.22;;;14.33;39.35
61870;BME280;47810;42.264;23.826;2024-02-16T11:20:44;94261.19;;;15.64;37.95
61870;BME280;47810;42.264;23.826;2024-02-16T11:23:16;94255.13;;;15.95;37.38
61870;BME280;47810;42.264;23.826;2024-02-16T11:26:18;94249.31;;;16.13;36.55
61870;BME280;47810;42.264;23.826;2024-02-16T11:29:04;94256.06;;;16.28;35.79
61870;BME280;47810;42.264;23.826;2024-02-16T11:35:34;94241.63;;;16.42;37.22
61870;BME280;47810;42.264;23.826;2024-02-16T11:38:12;94235.38;;;16.96;36.06
61870;BME280;47810;42.264;23.826;2024-02-16T11:41:10;94243.88;;;17.32;34.66
61870;BME280;47810;42.264;23.826;2024-02-16T11:43:49;94237.00;;;17.08;34.30
61870;BME280;47810;42.264;23.826;2024-02-16T11:49:46;94232.69;;;17.17;34.64
61870;BME280;47810;42.264;23.826;2024-02-16T11:52:41;94232.88;;;16.83;36.22
61870;BME280;47810;42.264;23.826;2024-02-16T11:58:30;94228.13;;;16.54;37.96
61870;BME280;47810;42.264;23.826;2024-02-16T12:01:02;94230.38;;;16.38;35.59
61870;BME280;47810;42.264;23.826;2024-02-16T12:03:32;94235.66;;;16.82;35.15
61870;BME280;47810;42.264;23.826;2024-02-16T12:06:06;94219.88;;;16.58;36.42
61870;BME280;47810;42.264;23.826;2024-02-16T12:08:38;94224.81;;;16.30;36.59
61870;BME280;47810;42.264;23.826;2024-02-16T12:11:12;94217.72;;;16.84;34.17
61870;BME280;47810;42.264;23.826;2024-02-16T12:13:44;94209.19;;;17.11;34.62
61870;BME280;47810;42.264;23.826;2024-02-16T12:16:18;94206.34;;;17.03;33.80
61870;BME280;47810;42.264;23.826;2024-02-16T12:19:09;94213.81;;;16.56;35.77
61870;BME280;47810;42.264;23.826;2024-02-16T12:21:44;94197.31;;;16.94;35.45
61870;BME280;47810;42.264;23.826;2024-02-16T12:27:26;94197.31;;;16.94;37.52
61870;BME280;47810;42.264;23.826;2024-02-16T12:29:52;94205.22;;;17.26;34.82
61870;BME280;47810;42.264;23.826;2024-02-16T12:32:25;94205.16;;;17.37;33.95
61870;BME280;47810;42.264;23.826;2024-02-16T12:38:14;94200.38;;;17.41;33.92
61870;BME280;47810;42.264;23.826;2024-02-16T12:44:11;94194.91;;;17.12;34.72
61870;BME280;47810;42.264;23.826;2024-02-16T12:46:38;94191.91;;;17.57;32.87
61870;BME280;47810;42.264;23.826;2024-02-16T12:49:09;94186.03;;;16.69;33.56
61870;BME280;47810;42.264;23.826;2024-02-16T12:51:43;94191.44;;;16.15;34.72
61870;BME280;47810;42.264;23.826;2024-02-16T12:54:15;94189.63;;;16.47;36.47
61870;BME280;47810;42.264;23.826;2024-02-16T12:56:48;94191.03;;;15.42;36.91
61870;BME280;47810;42.264;23.826;2024-02-16T12:59:20;94189.09;;;15.78;37.34
61870;BME280;47810;42.264;23.826;2024-02-16T13:01:52;94200.88;;;16.19;35.74
61870;BME280;47810;42.264;23.826;2024-02-16T13:04:23;94192.56;;;16.33;36.35
61870;BME280;47810;42.264;23.826;2024-02-16T13:06:55;94184.19;;;16.70;35.82
61870;BME280;47810;42.264;23.826;2024-02-16T13:09:28;94188.84;;;17.10;34.60
61870;BME280;47810;42.264;23.826;2024-02-16T13:12:00;94201.84;;;17.24;35.07
61870;BME280;47810;42.264;23.826;2024-02-16T13:14:35;94193.69;;;17.46;35.79
61870;BME280;47810;42.264;23.826;2024-02-16T13:17:05;94189.50;;;17.54;34.06
61870;BME280;47810;42.264;23.826;2024-02-16T13:19:35;94194.19;;;17.71;33.83
61870;BME280;47810;42.264;23.826;2024-02-16T13:22:02;94197.31;;;17.45;34.48
61870;BME280;47810;42.264;23.826;2024-02-16T13:24:40;94190.81;;;16.87;34.89
61870;BME280;47810;42.264;23.826;2024-02-16T13:27:12;94195.91;;;17.41;34.30
61870;BME280;47810;42.264;23.826;2024-02-16T13:29:37;94182.75;;;17.50;34.30
61870;BME280;47810;42.264;23.826;2024-02-16T13:32:16;94192.13;;;17.23;34.33
61870;BME280;47810;42.264;23.826;2024-02-16T13:34:48;94183.53;;;16.89;39.87
61870;BME280;47810;42.264;23.826;2024-02-16T13:37:21;94181.66;;;16.68;35.23
61870;BME280;47810;42.264;23.826;2024-02-16T13:39:47;94185.63;;;16.74;35.63
61870;BME280;47810;42.264;23.826;2024-02-16T13:42:27;94181.91;;;16.33;36.61
61870;BME280;47810;42.264;23.826;2024-02-16T13:44:57;94195.09;;;16.02;37.71
61870;BME280;47810;42.264;23.826;2024-02-16T13:47:24;94183.13;;;15.86;38.83
61870;BME280;47810;42.264;23.826;2024-02-16T13:50:01;94191.84;;;15.65;38.16
61870;BME280;47810;42.264;23.826;2024-02-16T13:52:29;94190.03;;;15.43;38.73
61870;BME280;47810;42.264;23.826;2024-02-16T13:54:56;94193.19;;;15.37;38.10
61870;BME280;47810;42.264;23.826;2024-02-16T13:57:24;94192.19;;;15.04;39.01
61870;BME280;47810;42.264;23.826;2024-02-16T13:59:58;94182.28;;;14.95;39.71
61870;BME280;47810;42.264;23.826;2024-02-16T14:02:36;94184.72;;;15.09;38.88
61870;BME280;47810;42.264;23.826;2024-02-16T14:05:03;94187.84;;;15.14;40.58
61870;BME280;47810;42.264;23.826;2024-02-16T14:07:46;94187.63;;;15.18;39.59
61870;BME280;47810;42.264;23.826;2024-02-16T14:10:19;94191.75;;;15.33;38.32
61870;BME280;47810;42.264;23.826;2024-02-16T14:12:50;94191.00;;;15.08;39.40
61870;BME280;47810;42.264;23.826;2024-02-16T14:15:18;94189.97;;;14.76;39.55
61870;BME280;47810;42.264;23.826;2024-02-16T14:17:45;94201.00;;;14.94;40.00
61870;BME280;47810;42.264;23.826;2024-02-16T14:20:19;94195.50;;;15.19;40.15
61870;BME280;47810;42.264;23.826;2024-02-16T14:22:58;94192.22;;;15.27;39.10
61870;BME280;47810;42.264;23.826;2024-02-16T14:25:34;94180.13;;;15.23;38.29
61870;BME280;47810;42.264;23.826;2024-02-16T14:28:04;94195.13;;;15.12;39.08
61870;BME280;47810;42.264;23.826;2024-02-16T14:30:37;94195.84;;;15.26;39.03
61870;BME280;47810;42.264;23.826;2024-02-16T14:33:06;94194.41;;;15.22;38.34
61870;BME280;47810;42.264;23.826;2024-02-16T14:35:38;94200.13;;;14.82;39.25
61870;BME280;47810;42.264;23.826;2024-02-16T14:38:11;94196.34;;;14.62;39.31
61870;BME280;47810;42.264;23.826;2024-02-16T14:40:39;94198.53;;;14.44;39.88
61870;BME280;47810;42.264;23.826;2024-02-16T14:43:07;94197.97;;;14.28;41.26
61870;BME280;47810;42.264;23.826;2024-02-16T14:45:33;94200.47;;;13.94;41.56
61870;BME280;47810;42.264;23.826;2024-02-16T14:48:00;94209.97;;;13.36;42.88
61870;BME280;47810;42.264;23.826;2024-02-16T14:50:27;94203.78;;;12.58;45.08
61870;BME280;47810;42.264;23.826;2024-02-16T14:53:05;94204.09;;;12.14;45.76
61870;BME280;47810;42.264;23.826;2024-02-16T14:58:31;94196.94;;;11.05;49.03
61870;BME280;47810;42.264;23.826;2024-02-16T15:01:00;94208.59;;;10.72;49.97
61870;BME280;47810;42.264;23.826;2024-02-16T15:03:26;94207.81;;;10.41;51.68
61870;BME280;47810;42.264;23.826;2024-02-16T15:05:56;94211.28;;;10.12;52.30
61870;BME280;47810;42.264;23.826;2024-02-16T15:08:22;94215.06;;;10.22;52.67
61870;BME280;47810;42.264;23.826;2024-02-16T15:10:48;94210.97;;;10.02;53.37
61870;BME280;47810;42.264;23.826;2024-02-16T15:13:16;94212.50;;;9.74;53.48
61870;BME280;47810;42.264;23.826;2024-02-16T15:15:43;94219.31;;;9.63;53.80
61870;BME280;47810;42.264;23.826;2024-02-16T15:18:09;94217.38;;;9.66;54.57
61870;BME280;47810;42.264;23.826;2024-02-16T15:20:37;94225.13;;;9.38;54.84
61870;BME280;47810;42.264;23.826;2024-02-16T15:23:03;94216.59;;;9.17;55.60
61870;BME280;47810;42.264;23.826;2024-02-16T15:25:29;94217.03;;;8.92;56.46
61870;BME280;47810;42.264;23.826;2024-02-16T15:27:59;94229.78;;;8.83;57.38
61870;BME280;47810;42.264;23.826;2024-02-16T15:30:26;94219.78;;;8.90;56.87
61870;BME280;47810;42.264;23.826;2024-02-16T15:32:52;94226.88;;;9.05;56.55
61870;BME280;47810;42.264;23.826;2024-02-16T15:35:27;94237.94;;;8.95;56.25
61870;BME280;47810;42.264;23.826;2024-02-16T15:37:54;94240.16;;;8.86;57.37
61870;BME280;47810;42.264;23.826;2024-02-16T15:40:20;94236.22;;;8.78;57.72